This is the latest recevied weather packets stored in our database for station/object KD7CIH. If no packets are shown the sender has not sent any weather packets the latest 10 day(s).
| Time | Temp. | Humidity | Pressure | Rain* | Wind** | Luminosity | Snow |
|---|---|---|---|---|---|---|---|
| 1788377889 | 21.67° C | 36% | 1012.3 hPa | 0 mm | - | - | - |
| 1788377592 | 21.67° C | 36% | 1012.3 hPa | 0 mm | - | - | - |
| 1788377434 | 21.11° C | 39% | 1012.4 hPa | 0 mm | - | - | - |
| 1788376990 | 21.11° C | 38% | 1012.4 hPa | 0 mm | - | - | - |
| 1788376692 | 20.56° C | 42% | 1012.5 hPa | 0 mm | - | - | - |
| 1788376390 | 21.11° C | 38% | 1012.4 hPa | 0 mm | - | - | - |
| 1788376217 | 21.67° C | 37% | 1012.5 hPa | 0 mm | - | - | - |
| 1788375917 | 21.67° C | 36% | 1012.5 hPa | 0 mm | - | - | - |
| 1788375616 | 21.67° C | 36% | 1012.7 hPa | 0 mm | - | - | - |
| 1788375189 | 22.22° C | 34% | 1012.5 hPa | 0 mm | - | - | - |
| 1788374889 | 22.22° C | 34% | 1012.8 hPa | 0 mm | - | - | - |
| 1788374587 | 22.78° C | 32% | 1012.7 hPa | 0 mm | - | - | - |
| 1788374414 | 23.33° C | 32% | 1012.8 hPa | 0 mm | - | - | - |
| 1788373989 | 23.33° C | 31% | 1012.8 hPa | 0 mm | - | - | - |
| 1788373686 | 23.33° C | 32% | 1012.8 hPa | 0 mm | - | - | - |
| 1788373513 | 22.78° C | 31% | 1012.9 hPa | 0 mm | - | - | - |
| 1788373088 | 22.78° C | 32% | 1013 hPa | 0 mm | - | - | - |
| 1788372915 | 23.33° C | 32% | 1013.1 hPa | 0 mm | - | - | - |
| 1788372486 | 23.33° C | 32% | 1013 hPa | 0 mm | - | - | - |
| 1788372190 | 22.78° C | 32% | 1013.1 hPa | 0 mm | - | - | - |
| 1788372014 | 22.22° C | 36% | 1013.3 hPa | 0 mm | - | - | - |
| 1788371587 | 21.67° C | 36% | 1013.4 hPa | 0 mm | - | - | - |
| 1788371286 | 21.67° C | 35% | 1013.4 hPa | 0 mm | - | - | - |
| 1788370987 | 22.22° C | 36% | 1013.4 hPa | 0 mm | - | - | - |
| 1788370815 | 21.67° C | 37% | 1013.5 hPa | 0 mm | - | - | - |
* Rain latest hour (hover to see other rain measurements)
** Current wind speed in m/s (hover to see current wind gust speed)